Bicycle Lake Army Air Field
KBYS : rendu visible

Aérodrome :











RETROUVEZ-NOUS SUR...

 
LOGIN :

S'inscrire | Disclaimer

   EN    FR    IT 

 









Légende :    VFR   VFR Marginal   IFR   IFR Intensif   IFR Très Intensif
Visi : 
Plafond : 
>= 8 km
>= 3000ft
5 à 8 km
1000 à 3000 ft
1500m à 5 km
500 à 1000 ft
800 à 1500m
200 à 500 ft
< 800m
< 200 ft
Symboles :   Orages  Brouillard  Fortes neiges  Fortes précipitations  Vent > 20 kt






- Altitude de l'aérodrome : 2350 ft


KBYS - Bicycle Lake Army Air Field

DERNIER METAR :
  • 210758Z AUTO 30004KT 3SM HZ FEW060 06/03 A2973 RMK AO2 SLP063 T00550032 401490055 $

METARs EXPIRÉS :
  • 210658Z AUTO 00000KT 8SM OVC060 08/02 A2971 RMK AO2 SLP055 T00760021 $
  • 210558Z AUTO 00000KT 5SM HZ CLR 09/01 A2970 RMK AO2 SLP051 T00850013 10112 20062 $

Prévision TAF périmée.



MET'MAP, la Météo Aéronautique d'un coup d'oeil ! - Copyright ORBIFLY Décembre 2007 - Disclaimer

ORBIFLY MET'MAP TEAM :

Programmation & Développement : Alexandra Zaïnal
Conception & Développement : Baudouin d'Aumeries
Co-Programmation & Développement : Marc-Olivier Méhu
Soutien technique & logistique : Manuel Goepfert

Contact : metmap@orbifly.com




SOURCES & CREDITS :

   NOAA       Earth
Advisory